createdAt,value
2023-04-11T00:00:00.000Z,6.27
2023-04-11T00:15:00.000Z,6.04
2023-04-11T00:30:00.000Z,6.12
2023-04-11T00:45:00.000Z,6.18
2023-04-11T01:00:00.000Z,5.71
2023-04-11T01:15:00.000Z,5.66
2023-04-11T01:30:00.000Z,4.98
2023-04-11T01:45:00.000Z,4.71
2023-04-11T02:00:00.000Z,4.54
2023-04-11T02:15:00.000Z,5.34
2023-04-11T02:30:00.000Z,5.08
2023-04-11T02:45:00.000Z,5.35
2023-04-11T03:00:00.000Z,5.02
2023-04-11T03:15:00.000Z,5.55
2023-04-11T03:30:00.000Z,4.67
2023-04-11T03:45:00.000Z,4.84
2023-04-11T04:00:00.000Z,5.68
2023-04-11T04:15:00.000Z,6.24
2023-04-11T04:30:00.000Z,6.21
2023-04-11T04:45:00.000Z,7.08
2023-04-11T05:00:00.000Z,6.65
2023-04-11T05:15:00.000Z,7.95
2023-04-11T05:30:00.000Z,5.85
2023-04-11T05:45:00.000Z,6.99
2023-04-11T06:00:00.000Z,7.11
2023-04-11T06:15:00.000Z,5.85
2023-04-11T06:30:00.000Z,6.67
2023-04-11T06:45:00.000Z,7.72
2023-04-11T07:00:00.000Z,8.65
2023-04-11T07:15:00.000Z,9.84
2023-04-11T07:30:00.000Z,9.21
2023-04-11T07:45:00.000Z,8.18
2023-04-11T08:00:00.000Z,7.71
2023-04-11T08:15:00.000Z,8.86
2023-04-11T08:30:00.000Z,9.47
2023-04-11T08:45:00.000Z,13.19
2023-04-11T09:00:00.000Z,16.23
2023-04-11T09:15:00.000Z,12.49
2023-04-11T09:30:00.000Z,16.6
2023-04-11T09:45:00.000Z,7.31
2023-04-11T10:00:00.000Z,4.33
2023-04-11T10:15:00.000Z,4.53
2023-04-11T10:30:00.000Z,9.06
2023-04-11T10:45:00.000Z,1.85
2023-04-11T11:00:00.000Z,2.67
2023-04-11T11:15:00.000Z,2.33
2023-04-11T11:30:00.000Z,2.2
2023-04-11T11:45:00.000Z,10.09
2023-04-11T12:00:00.000Z,4.28
2023-04-11T12:15:00.000Z,2.66
2023-04-11T12:30:00.000Z,2.94
2023-04-11T12:45:00.000Z,4.56
2023-04-11T13:00:00.000Z,7.56
2023-04-11T13:15:00.000Z,7.58
2023-04-11T13:30:00.000Z,6.48
2023-04-11T13:45:00.000Z,4.2
2023-04-11T14:00:00.000Z,3.52
2023-04-11T14:15:00.000Z,6.15
2023-04-11T14:30:00.000Z,18.99
2023-04-11T14:45:00.000Z,20.96
2023-04-11T15:00:00.000Z,20.24
2023-04-11T15:15:00.000Z,18.42
2023-04-11T15:30:00.000Z,19.13
2023-04-11T15:45:00.000Z,18.99
2023-04-11T16:00:00.000Z,8.84
2023-04-11T16:15:00.000Z,8.09
2023-04-11T16:30:00.000Z,14.24
2023-04-11T16:45:00.000Z,17.07
2023-04-11T17:00:00.000Z,10.02
2023-04-11T17:15:00.000Z,10.95
2023-04-11T17:30:00.000Z,7.95
2023-04-11T17:45:00.000Z,6.69
2023-04-11T18:00:00.000Z,4.66
2023-04-11T18:15:00.000Z,4.86
2023-04-11T18:30:00.000Z,8.05
2023-04-11T18:45:00.000Z,11.99
2023-04-11T19:00:00.000Z,8.85
2023-04-11T19:15:00.000Z,11.88
2023-04-11T19:30:00.000Z,8.66
2023-04-11T19:45:00.000Z,14.56
2023-04-11T20:00:00.000Z,8.68
2023-04-11T20:15:00.000Z,12.64
2023-04-11T20:30:00.000Z,10.56
2023-04-11T20:45:00.000Z,6.55
2023-04-11T21:00:00.000Z,5.49
2023-04-11T21:15:00.000Z,3.53
2023-04-11T21:30:00.000Z,4.08
2023-04-11T21:45:00.000Z,4.02
2023-04-11T22:00:00.000Z,4.74
2023-04-11T22:15:00.000Z,4.52
2023-04-11T22:30:00.000Z,4.18
2023-04-11T22:45:00.000Z,4.31
2023-04-11T23:00:00.000Z,4.21
2023-04-11T23:15:00.000Z,4.09
2023-04-11T23:30:00.000Z,4.04
2023-04-11T23:45:00.000Z,4.26
